St Thomas, Virgin Islands
Current Conditions -  °F | °C
As of 10:00 AM on Tuesday 27 Jan 2015 (Local Time) from TUPJ Reporting Station
Scattered Clouds Scattered Clouds  
Wind Chill: 82°   Ceiling: Unl
Heat Index: 87°   Visibility: 6mi
Dew Point: 72°   Wind: 9mph
Humidity: 70%   Direction: 150°SSE
Pressure: 30.03"   Gusts: NA
Location:  18.3436°N, 64.9322°W
Report Text: TUPJ 271400Z 15008KT 9999 SCT021 28/22 Q1017
Loading
Personal Weather Stations






























Interactive Weather Map New forecast layout! Learn more

10-Day Weather Forecast

Advertisements
Track Severe Weather on mobile